sensor_id;sensor_type;location;lat;lon;timestamp;P1;durP1;ratioP1;P2;durP2;ratioP2
32641;SDS011;19323;56.072;9.698;2022-08-01T00:01:55;2.03;;;0.90;;
32641;SDS011;19323;56.072;9.698;2022-08-01T00:04:22;1.20;;;1.10;;
32641;SDS011;19323;56.072;9.698;2022-08-01T00:06:48;2.08;;;1.00;;
32641;SDS011;19323;56.072;9.698;2022-08-01T00:09:15;1.63;;;1.25;;
32641;SDS011;19323;56.072;9.698;2022-08-01T00:11:49;5.18;;;0.95;;
32641;SDS011;19323;56.072;9.698;2022-08-01T00:14:25;1.90;;;1.23;;
32641;SDS011;19323;56.072;9.698;2022-08-01T00:16:57;1.92;;;1.15;;
32641;SDS011;19323;56.072;9.698;2022-08-01T00:19:32;1.58;;;0.82;;
32641;SDS011;19323;56.072;9.698;2022-08-01T00:21:58;2.58;;;0.98;;
32641;SDS011;19323;56.072;9.698;2022-08-01T00:24:25;0.98;;;0.80;;
32641;SDS011;19323;56.072;9.698;2022-08-01T00:26:51;1.55;;;1.20;;
32641;SDS011;19323;56.072;9.698;2022-08-01T00:29:18;0.85;;;0.77;;
32641;SDS011;19323;56.072;9.698;2022-08-01T00:32:04;1.52;;;0.90;;
32641;SDS011;19323;56.072;9.698;2022-08-01T00:34:32;1.25;;;0.90;;
32641;SDS011;19323;56.072;9.698;2022-08-01T00:36:58;1.30;;;0.88;;
32641;SDS011;19323;56.072;9.698;2022-08-01T00:39:25;2.20;;;1.35;;
32641;SDS011;19323;56.072;9.698;2022-08-01T00:41:51;1.77;;;0.90;;
32641;SDS011;19323;56.072;9.698;2022-08-01T00:44:25;1.48;;;0.60;;
32641;SDS011;19323;56.072;9.698;2022-08-01T00:46:52;1.45;;;0.82;;
32641;SDS011;19323;56.072;9.698;2022-08-01T00:49:19;2.40;;;1.33;;
32641;SDS011;19323;56.072;9.698;2022-08-01T00:51:46;0.90;;;0.73;;
32641;SDS011;19323;56.072;9.698;2022-08-01T00:54:12;2.55;;;1.08;;
32641;SDS011;19323;56.072;9.698;2022-08-01T00:56:42;2.45;;;1.10;;
32641;SDS011;19323;56.072;9.698;2022-08-01T00:59:09;1.98;;;1.10;;
32641;SDS011;19323;56.072;9.698;2022-08-01T01:01:39;1.17;;;1.08;;
32641;SDS011;19323;56.072;9.698;2022-08-01T01:04:11;1.10;;;1.00;;
32641;SDS011;19323;56.072;9.698;2022-08-01T01:06:41;0.70;;;0.70;;
32641;SDS011;19323;56.072;9.698;2022-08-01T01:14:37;1.50;;;1.10;;
32641;SDS011;19323;56.072;9.698;2022-08-01T01:17:17;1.42;;;0.85;;
32641;SDS011;19323;56.072;9.698;2022-08-01T01:20:10;1.10;;;0.85;;
32641;SDS011;19323;56.072;9.698;2022-08-01T01:31:26;1.50;;;1.00;;
32641;SDS011;19323;56.072;9.698;2022-08-01T01:33:54;3.33;;;1.85;;
32641;SDS011;19323;56.072;9.698;2022-08-01T01:36:24;1.30;;;1.10;;
32641;SDS011;19323;56.072;9.698;2022-08-01T01:38:52;3.05;;;1.10;;
32641;SDS011;19323;56.072;9.698;2022-08-01T01:41:20;2.17;;;1.02;;
32641;SDS011;19323;56.072;9.698;2022-08-01T01:43:48;7.70;;;1.40;;
32641;SDS011;19323;56.072;9.698;2022-08-01T01:46:17;2.42;;;1.00;;
32641;SDS011;19323;56.072;9.698;2022-08-01T01:48:48;7.75;;;1.40;;
32641;SDS011;19323;56.072;9.698;2022-08-01T01:51:16;2.15;;;1.30;;
32641;SDS011;19323;56.072;9.698;2022-08-01T01:53:47;1.50;;;1.30;;
32641;SDS011;19323;56.072;9.698;2022-08-01T01:56:15;3.45;;;1.25;;
32641;SDS011;19323;56.072;9.698;2022-08-01T01:58:43;1.58;;;0.90;;
32641;SDS011;19323;56.072;9.698;2022-08-01T02:01:11;1.77;;;1.38;;
32641;SDS011;19323;56.072;9.698;2022-08-01T02:03:40;3.13;;;1.10;;
32641;SDS011;19323;56.072;9.698;2022-08-01T02:06:09;3.53;;;1.40;;
32641;SDS011;19323;56.072;9.698;2022-08-01T02:08:39;0.88;;;0.80;;
32641;SDS011;19323;56.072;9.698;2022-08-01T02:11:09;2.47;;;1.08;;
32641;SDS011;19323;56.072;9.698;2022-08-01T02:13:52;8.13;;;1.33;;
32641;SDS011;19323;56.072;9.698;2022-08-01T02:16:23;3.13;;;1.13;;
32641;SDS011;19323;56.072;9.698;2022-08-01T02:18:52;1.55;;;1.10;;
32641;SDS011;19323;56.072;9.698;2022-08-01T02:21:24;2.92;;;0.93;;
32641;SDS011;19323;56.072;9.698;2022-08-01T02:24:24;1.40;;;0.98;;
32641;SDS011;19323;56.072;9.698;2022-08-01T02:27:01;1.33;;;1.00;;
32641;SDS011;19323;56.072;9.698;2022-08-01T02:29:34;1.17;;;0.93;;
32641;SDS011;19323;56.072;9.698;2022-08-01T02:32:06;1.67;;;1.15;;
32641;SDS011;19323;56.072;9.698;2022-08-01T02:34:36;1.92;;;0.73;;
32641;SDS011;19323;56.072;9.698;2022-08-01T02:37:04;1.25;;;0.98;;
32641;SDS011;19323;56.072;9.698;2022-08-01T02:39:32;2.83;;;0.70;;
32641;SDS011;19323;56.072;9.698;2022-08-01T02:42:05;1.25;;;0.93;;
32641;SDS011;19323;56.072;9.698;2022-08-01T02:44:36;1.05;;;0.68;;
32641;SDS011;19323;56.072;9.698;2022-08-01T02:47:05;2.83;;;0.75;;
32641;SDS011;19323;56.072;9.698;2022-08-01T02:49:36;1.25;;;0.68;;
32641;SDS011;19323;56.072;9.698;2022-08-01T02:52:08;1.88;;;0.57;;
32641;SDS011;19323;56.072;9.698;2022-08-01T02:54:39;0.73;;;0.55;;
32641;SDS011;19323;56.072;9.698;2022-08-01T02:57:07;1.50;;;0.80;;
32641;SDS011;19323;56.072;9.698;2022-08-01T02:59:39;2.05;;;0.60;;
32641;SDS011;19323;56.072;9.698;2022-08-01T03:02:10;0.63;;;0.63;;
32641;SDS011;19323;56.072;9.698;2022-08-01T03:04:38;0.70;;;0.52;;
32641;SDS011;19323;56.072;9.698;2022-08-01T03:07:07;0.88;;;0.70;;
32641;SDS011;19323;56.072;9.698;2022-08-01T03:09:37;0.93;;;0.80;;
32641;SDS011;19323;56.072;9.698;2022-08-01T03:12:09;2.58;;;0.80;;
32641;SDS011;19323;56.072;9.698;2022-08-01T03:14:38;2.35;;;0.88;;
32641;SDS011;19323;56.072;9.698;2022-08-01T03:17:07;3.00;;;0.68;;
32641;SDS011;19323;56.072;9.698;2022-08-01T03:19:35;1.50;;;0.73;;
32641;SDS011;19323;56.072;9.698;2022-08-01T03:22:08;1.38;;;0.88;;
32641;SDS011;19323;56.072;9.698;2022-08-01T03:24:37;1.42;;;1.08;;
32641;SDS011;19323;56.072;9.698;2022-08-01T03:27:06;1.70;;;0.80;;
32641;SDS011;19323;56.072;9.698;2022-08-01T03:29:36;3.70;;;1.00;;
32641;SDS011;19323;56.072;9.698;2022-08-01T03:32:05;2.13;;;1.30;;
32641;SDS011;19323;56.072;9.698;2022-08-01T03:34:33;2.22;;;0.82;;
32641;SDS011;19323;56.072;9.698;2022-08-01T03:37:12;4.22;;;0.70;;
32641;SDS011;19323;56.072;9.698;2022-08-01T03:39:47;2.20;;;1.00;;
32641;SDS011;19323;56.072;9.698;2022-08-01T03:42:23;1.55;;;0.75;;
32641;SDS011;19323;56.072;9.698;2022-08-01T03:44:57;3.60;;;1.50;;
32641;SDS011;19323;56.072;9.698;2022-08-01T03:47:32;3.63;;;1.48;;
32641;SDS011;19323;56.072;9.698;2022-08-01T03:50:09;4.22;;;1.13;;
32641;SDS011;19323;56.072;9.698;2022-08-01T03:52:38;2.42;;;0.98;;
32641;SDS011;19323;56.072;9.698;2022-08-01T03:55:07;2.67;;;1.33;;
32641;SDS011;19323;56.072;9.698;2022-08-01T03:57:37;4.70;;;1.13;;
32641;SDS011;19323;56.072;9.698;2022-08-01T04:00:05;3.00;;;1.10;;
32641;SDS011;19323;56.072;9.698;2022-08-01T04:02:35;4.05;;;1.20;;
32641;SDS011;19323;56.072;9.698;2022-08-01T04:05:03;2.35;;;1.02;;
32641;SDS011;19323;56.072;9.698;2022-08-01T04:07:32;2.75;;;0.80;;
32641;SDS011;19323;56.072;9.698;2022-08-01T04:10:02;3.47;;;1.42;;
32641;SDS011;19323;56.072;9.698;2022-08-01T04:12:30;3.92;;;1.20;;
32641;SDS011;19323;56.072;9.698;2022-08-01T04:14:56;3.33;;;1.48;;
32641;SDS011;19323;56.072;9.698;2022-08-01T04:17:23;2.55;;;1.25;;
32641;SDS011;19323;56.072;9.698;2022-08-01T04:19:49;2.75;;;1.15;;
32641;SDS011;19323;56.072;9.698;2022-08-01T04:22:16;3.40;;;0.82;;
32641;SDS011;19323;56.072;9.698;2022-08-01T04:24:44;2.80;;;1.52;;
32641;SDS011;19323;56.072;9.698;2022-08-01T04:27:23;6.38;;;1.30;;
32641;SDS011;19323;56.072;9.698;2022-08-01T04:30:15;6.57;;;1.52;;
32641;SDS011;19323;56.072;9.698;2022-08-01T04:32:46;8.82;;;1.17;;
32641;SDS011;19323;56.072;9.698;2022-08-01T04:35:14;4.38;;;1.25;;
32641;SDS011;19323;56.072;9.698;2022-08-01T04:38:03;5.78;;;1.27;;
32641;SDS011;19323;56.072;9.698;2022-08-01T04:40:31;4.03;;;1.30;;
32641;SDS011;19323;56.072;9.698;2022-08-01T04:42:59;5.45;;;1.63;;
32641;SDS011;19323;56.072;9.698;2022-08-01T04:45:26;4.32;;;1.02;;
32641;SDS011;19323;56.072;9.698;2022-08-01T04:47:53;10.18;;;1.25;;
32641;SDS011;19323;56.072;9.698;2022-08-01T04:50:20;5.65;;;1.63;;
32641;SDS011;19323;56.072;9.698;2022-08-01T04:52:48;6.38;;;1.70;;
32641;SDS011;19323;56.072;9.698;2022-08-01T04:55:14;2.42;;;1.15;;
32641;SDS011;19323;56.072;9.698;2022-08-01T04:57:44;6.32;;;1.70;;
32641;SDS011;19323;56.072;9.698;2022-08-01T05:00:12;9.30;;;2.13;;
32641;SDS011;19323;56.072;9.698;2022-08-01T05:02:40;15.07;;;1.90;;
32641;SDS011;19323;56.072;9.698;2022-08-01T05:05:06;9.30;;;1.40;;
32641;SDS011;19323;56.072;9.698;2022-08-01T05:07:33;10.73;;;1.65;;
32641;SDS011;19323;56.072;9.698;2022-08-01T05:10:10;22.10;;;1.50;;
32641;SDS011;19323;56.072;9.698;2022-08-01T05:12:40;12.63;;;1.70;;
32641;SDS011;19323;56.072;9.698;2022-08-01T05:15:07;2.13;;;1.15;;
32641;SDS011;19323;56.072;9.698;2022-08-01T05:17:40;7.78;;;1.75;;
32641;SDS011;19323;56.072;9.698;2022-08-01T05:20:08;5.45;;;1.52;;
32641;SDS011;19323;56.072;9.698;2022-08-01T05:22:36;8.38;;;2.92;;
32641;SDS011;19323;56.072;9.698;2022-08-01T05:25:02;10.80;;;3.78;;
32641;SDS011;19323;56.072;9.698;2022-08-01T05:27:31;13.00;;;3.65;;
32641;SDS011;19323;56.072;9.698;2022-08-01T05:29:59;16.40;;;5.20;;
32641;SDS011;19323;56.072;9.698;2022-08-01T05:32:25;13.80;;;4.90;;
32641;SDS011;19323;56.072;9.698;2022-08-01T05:34:52;12.18;;;4.63;;
32641;SDS011;19323;56.072;9.698;2022-08-01T05:37:18;14.27;;;5.18;;
32641;SDS011;19323;56.072;9.698;2022-08-01T05:39:45;24.35;;;6.57;;
32641;SDS011;19323;56.072;9.698;2022-08-01T05:42:11;17.67;;;6.00;;
32641;SDS011;19323;56.072;9.698;2022-08-01T05:44:38;19.40;;;6.75;;
32641;SDS011;19323;56.072;9.698;2022-08-01T05:47:04;20.92;;;6.63;;
32641;SDS011;19323;56.072;9.698;2022-08-01T05:49:31;17.02;;;6.68;;
32641;SDS011;19323;56.072;9.698;2022-08-01T05:51:57;15.43;;;5.70;;
32641;SDS011;19323;56.072;9.698;2022-08-01T05:54:24;13.43;;;5.40;;
32641;SDS011;19323;56.072;9.698;2022-08-01T05:56:51;14.63;;;5.32;;
32641;SDS011;19323;56.072;9.698;2022-08-01T05:59:17;16.40;;;5.88;;
32641;SDS011;19323;56.072;9.698;2022-08-01T06:01:44;17.98;;;7.63;;
32641;SDS011;19323;56.072;9.698;2022-08-01T06:04:11;15.23;;;5.90;;
32641;SDS011;19323;56.072;9.698;2022-08-01T06:06:37;15.60;;;5.70;;
32641;SDS011;19323;56.072;9.698;2022-08-01T06:09:03;11.13;;;4.65;;
32641;SDS011;19323;56.072;9.698;2022-08-01T06:11:30;11.00;;;5.25;;
32641;SDS011;19323;56.072;9.698;2022-08-01T06:13:56;9.00;;;4.22;;
32641;SDS011;19323;56.072;9.698;2022-08-01T06:16:23;10.18;;;4.13;;
32641;SDS011;19323;56.072;9.698;2022-08-01T06:18:50;10.52;;;3.78;;
32641;SDS011;19323;56.072;9.698;2022-08-01T06:21:21;9.35;;;3.83;;
32641;SDS011;19323;56.072;9.698;2022-08-01T06:23:48;6.40;;;3.00;;
32641;SDS011;19323;56.072;9.698;2022-08-01T06:26:17;10.57;;;3.53;;
32641;SDS011;19323;56.072;9.698;2022-08-01T06:28:44;13.45;;;4.00;;
32641;SDS011;19323;56.072;9.698;2022-08-01T06:31:10;15.77;;;2.78;;
32641;SDS011;19323;56.072;9.698;2022-08-01T06:33:39;8.68;;;2.40;;
32641;SDS011;19323;56.072;9.698;2022-08-01T06:36:06;10.45;;;3.13;;
32641;SDS011;19323;56.072;9.698;2022-08-01T06:38:32;8.75;;;2.00;;
32641;SDS011;19323;56.072;9.698;2022-08-01T06:40:59;8.88;;;1.80;;
32641;SDS011;19323;56.072;9.698;2022-08-01T06:43:25;7.03;;;2.15;;
32641;SDS011;19323;56.072;9.698;2022-08-01T06:45:52;3.88;;;1.35;;
32641;SDS011;19323;56.072;9.698;2022-08-01T06:48:18;4.80;;;1.75;;
32641;SDS011;19323;56.072;9.698;2022-08-01T06:50:45;3.80;;;1.60;;
32641;SDS011;19323;56.072;9.698;2022-08-01T06:53:11;8.02;;;1.95;;
32641;SDS011;19323;56.072;9.698;2022-08-01T06:55:38;4.70;;;1.40;;
32641;SDS011;19323;56.072;9.698;2022-08-01T06:58:05;2.88;;;1.33;;
32641;SDS011;19323;56.072;9.698;2022-08-01T07:00:31;3.75;;;1.45;;
32641;SDS011;19323;56.072;9.698;2022-08-01T07:02:58;4.03;;;1.42;;
32641;SDS011;19323;56.072;9.698;2022-08-01T07:05:25;7.65;;;1.58;;
32641;SDS011;19323;56.072;9.698;2022-08-01T07:07:52;5.13;;;1.90;;
32641;SDS011;19323;56.072;9.698;2022-08-01T07:10:19;3.13;;;1.50;;
32641;SDS011;19323;56.072;9.698;2022-08-01T07:12:45;6.97;;;1.65;;
32641;SDS011;19323;56.072;9.698;2022-08-01T07:15:12;4.50;;;1.10;;
32641;SDS011;19323;56.072;9.698;2022-08-01T07:17:39;5.20;;;1.55;;
32641;SDS011;19323;56.072;9.698;2022-08-01T07:20:11;8.27;;;2.00;;
32641;SDS011;19323;56.072;9.698;2022-08-01T07:22:41;7.85;;;1.95;;
32641;SDS011;19323;56.072;9.698;2022-08-01T07:25:08;5.40;;;2.03;;
32641;SDS011;19323;56.072;9.698;2022-08-01T07:27:35;6.40;;;1.48;;
32641;SDS011;19323;56.072;9.698;2022-08-01T07:30:03;6.90;;;1.77;;
32641;SDS011;19323;56.072;9.698;2022-08-01T07:32:30;6.43;;;2.20;;
32641;SDS011;19323;56.072;9.698;2022-08-01T07:34:57;5.13;;;2.25;;
32641;SDS011;19323;56.072;9.698;2022-08-01T07:37:25;5.38;;;2.08;;
32641;SDS011;19323;56.072;9.698;2022-08-01T07:40:12;6.85;;;2.22;;
32641;SDS011;19323;56.072;9.698;2022-08-01T07:42:38;7.72;;;2.35;;
32641;SDS011;19323;56.072;9.698;2022-08-01T07:45:09;6.25;;;2.00;;
32641;SDS011;19323;56.072;9.698;2022-08-01T07:47:37;5.22;;;1.50;;
32641;SDS011;19323;56.072;9.698;2022-08-01T07:50:04;5.80;;;1.80;;
32641;SDS011;19323;56.072;9.698;2022-08-01T07:52:32;5.40;;;1.98;;
32641;SDS011;19323;56.072;9.698;2022-08-01T07:54:59;5.68;;;1.83;;
32641;SDS011;19323;56.072;9.698;2022-08-01T07:57:25;4.57;;;2.17;;
32641;SDS011;19323;56.072;9.698;2022-08-01T07:59:52;6.38;;;2.20;;
32641;SDS011;19323;56.072;9.698;2022-08-01T08:02:18;4.38;;;1.83;;
32641;SDS011;19323;56.072;9.698;2022-08-01T08:04:45;3.55;;;1.60;;
32641;SDS011;19323;56.072;9.698;2022-08-01T08:07:14;7.53;;;1.52;;
32641;SDS011;19323;56.072;9.698;2022-08-01T08:09:41;7.18;;;2.17;;
32641;SDS011;19323;56.072;9.698;2022-08-01T08:12:07;4.47;;;1.75;;
32641;SDS011;19323;56.072;9.698;2022-08-01T08:14:35;6.00;;;2.45;;
32641;SDS011;19323;56.072;9.698;2022-08-01T08:17:02;3.15;;;1.83;;
32641;SDS011;19323;56.072;9.698;2022-08-01T08:19:28;9.10;;;1.65;;
32641;SDS011;19323;56.072;9.698;2022-08-01T08:22:03;6.07;;;1.60;;
32641;SDS011;19323;56.072;9.698;2022-08-01T08:24:30;5.80;;;1.42;;
32641;SDS011;19323;56.072;9.698;2022-08-01T08:26:58;3.60;;;1.15;;
32641;SDS011;19323;56.072;9.698;2022-08-01T08:29:26;6.45;;;1.17;;
32641;SDS011;19323;56.072;9.698;2022-08-01T08:31:56;5.22;;;1.88;;
32641;SDS011;19323;56.072;9.698;2022-08-01T08:34:24;7.03;;;1.48;;
32641;SDS011;19323;56.072;9.698;2022-08-01T08:36:51;4.57;;;1.73;;
32641;SDS011;19323;56.072;9.698;2022-08-01T08:39:18;5.60;;;1.73;;
32641;SDS011;19323;56.072;9.698;2022-08-01T08:41:46;3.05;;;1.45;;
32641;SDS011;19323;56.072;9.698;2022-08-01T08:44:15;5.38;;;1.58;;
32641;SDS011;19323;56.072;9.698;2022-08-01T08:46:44;5.95;;;1.60;;
32641;SDS011;19323;56.072;9.698;2022-08-01T08:49:12;5.32;;;1.58;;
32641;SDS011;19323;56.072;9.698;2022-08-01T08:51:42;5.65;;;1.52;;
32641;SDS011;19323;56.072;9.698;2022-08-01T08:54:10;3.35;;;1.00;;
32641;SDS011;19323;56.072;9.698;2022-08-01T08:56:39;5.72;;;1.33;;
32641;SDS011;19323;56.072;9.698;2022-08-01T08:59:07;4.15;;;1.35;;
32641;SDS011;19323;56.072;9.698;2022-08-01T09:01:34;8.73;;;1.58;;
32641;SDS011;19323;56.072;9.698;2022-08-01T09:04:04;5.53;;;1.40;;
32641;SDS011;19323;56.072;9.698;2022-08-01T09:06:31;3.22;;;1.00;;
32641;SDS011;19323;56.072;9.698;2022-08-01T09:08:59;6.72;;;1.52;;
32641;SDS011;19323;56.072;9.698;2022-08-01T09:11:25;2.83;;;1.02;;
32641;SDS011;19323;56.072;9.698;2022-08-01T09:16:33;5.25;;;1.20;;
32641;SDS011;19323;56.072;9.698;2022-08-01T09:19:07;4.05;;;1.48;;
32641;SDS011;19323;56.072;9.698;2022-08-01T09:21:55;6.53;;;2.22;;
32641;SDS011;19323;56.072;9.698;2022-08-01T09:24:24;4.95;;;0.90;;
32641;SDS011;19323;56.072;9.698;2022-08-01T09:26:56;7.13;;;1.70;;
32641;SDS011;19323;56.072;9.698;2022-08-01T09:29:26;3.92;;;1.33;;
32641;SDS011;19323;56.072;9.698;2022-08-01T09:32:05;6.03;;;1.58;;
32641;SDS011;19323;56.072;9.698;2022-08-01T09:34:33;3.90;;;1.52;;
32641;SDS011;19323;56.072;9.698;2022-08-01T09:37:00;5.78;;;1.75;;
32641;SDS011;19323;56.072;9.698;2022-08-01T09:39:28;3.75;;;1.75;;
32641;SDS011;19323;56.072;9.698;2022-08-01T09:41:57;6.75;;;1.50;;
32641;SDS011;19323;56.072;9.698;2022-08-01T09:47:19;6.60;;;1.70;;
32641;SDS011;19323;56.072;9.698;2022-08-01T09:49:56;9.20;;;1.80;;
32641;SDS011;19323;56.072;9.698;2022-08-01T09:52:26;6.95;;;1.23;;
32641;SDS011;19323;56.072;9.698;2022-08-01T09:54:55;3.35;;;1.38;;
32641;SDS011;19323;56.072;9.698;2022-08-01T09:57:22;4.22;;;1.50;;
32641;SDS011;19323;56.072;9.698;2022-08-01T09:59:50;4.05;;;1.40;;
32641;SDS011;19323;56.072;9.698;2022-08-01T10:05:01;3.75;;;1.15;;
32641;SDS011;19323;56.072;9.698;2022-08-01T10:07:34;3.42;;;1.40;;
32641;SDS011;19323;56.072;9.698;2022-08-01T10:10:13;4.22;;;1.98;;
32641;SDS011;19323;56.072;9.698;2022-08-01T10:12:41;6.63;;;1.50;;
32641;SDS011;19323;56.072;9.698;2022-08-01T10:15:15;6.72;;;1.65;;
32641;SDS011;19323;56.072;9.698;2022-08-01T10:17:46;6.40;;;1.45;;
32641;SDS011;19323;56.072;9.698;2022-08-01T10:20:24;5.57;;;1.55;;
32641;SDS011;19323;56.072;9.698;2022-08-01T10:22:58;4.05;;;1.67;;
32641;SDS011;19323;56.072;9.698;2022-08-01T10:25:34;4.15;;;1.48;;
32641;SDS011;19323;56.072;9.698;2022-08-01T10:28:15;4.57;;;1.20;;
32641;SDS011;19323;56.072;9.698;2022-08-01T10:30:49;4.28;;;1.35;;
32641;SDS011;19323;56.072;9.698;2022-08-01T10:33:18;3.33;;;0.90;;
32641;SDS011;19323;56.072;9.698;2022-08-01T10:36:08;4.57;;;1.42;;
32641;SDS011;19323;56.072;9.698;2022-08-01T10:38:35;3.78;;;1.00;;
32641;SDS011;19323;56.072;9.698;2022-08-01T10:41:03;2.58;;;1.25;;
32641;SDS011;19323;56.072;9.698;2022-08-01T10:43:31;3.45;;;1.23;;
32641;SDS011;19323;56.072;9.698;2022-08-01T10:46:00;3.47;;;1.00;;
32641;SDS011;19323;56.072;9.698;2022-08-01T10:51:08;3.33;;;0.70;;
32641;SDS011;19323;56.072;9.698;2022-08-01T10:53:47;3.05;;;0.90;;
32641;SDS011;19323;56.072;9.698;2022-08-01T10:56:20;4.10;;;1.00;;
32641;SDS011;19323;56.072;9.698;2022-08-01T10:58:55;6.60;;;0.90;;
32641;SDS011;19323;56.072;9.698;2022-08-01T11:01:37;5.65;;;0.80;;
32641;SDS011;19323;56.072;9.698;2022-08-01T11:04:11;2.83;;;0.70;;
32641;SDS011;19323;56.072;9.698;2022-08-01T11:06:49;5.90;;;1.42;;
32641;SDS011;19323;56.072;9.698;2022-08-01T11:09:22;3.03;;;1.00;;
32641;SDS011;19323;56.072;9.698;2022-08-01T11:12:06;5.60;;;1.33;;
32641;SDS011;19323;56.072;9.698;2022-08-01T11:25:25;2.20;;;0.75;;
32641;SDS011;19323;56.072;9.698;2022-08-01T11:38:42;4.60;;;0.80;;
32641;SDS011;19323;56.072;9.698;2022-08-01T11:41:39;4.28;;;0.90;;
32641;SDS011;19323;56.072;9.698;2022-08-01T11:44:14;2.33;;;0.80;;
32641;SDS011;19323;56.072;9.698;2022-08-01T11:52:06;3.50;;;0.80;;
32641;SDS011;19323;56.072;9.698;2022-08-01T11:57:05;3.15;;;0.80;;
32641;SDS011;19323;56.072;9.698;2022-08-01T11:59:44;6.53;;;0.90;;
32641;SDS011;19323;56.072;9.698;2022-08-01T12:02:32;4.80;;;0.82;;
32641;SDS011;19323;56.072;9.698;2022-08-01T12:07:38;7.85;;;1.13;;
32641;SDS011;19323;56.072;9.698;2022-08-01T12:10:10;3.13;;;0.93;;
32641;SDS011;19323;56.072;9.698;2022-08-01T12:13:00;3.40;;;0.68;;
32641;SDS011;19323;56.072;9.698;2022-08-01T12:15:32;2.55;;;0.60;;
32641;SDS011;19323;56.072;9.698;2022-08-01T12:18:01;3.00;;;0.98;;
32641;SDS011;19323;56.072;9.698;2022-08-01T12:20:38;2.87;;;0.83;;
32641;SDS011;19323;56.072;9.698;2022-08-01T12:23:21;3.80;;;1.05;;
32641;SDS011;19323;56.072;9.698;2022-08-01T12:25:50;2.28;;;0.70;;
32641;SDS011;19323;56.072;9.698;2022-08-01T12:28:17;8.88;;;1.02;;
32641;SDS011;19323;56.072;9.698;2022-08-01T12:30:46;4.28;;;0.70;;
32641;SDS011;19323;56.072;9.698;2022-08-01T12:33:16;6.13;;;1.20;;
32641;SDS011;19323;56.072;9.698;2022-08-01T12:35:44;3.45;;;1.10;;
32641;SDS011;19323;56.072;9.698;2022-08-01T12:38:17;2.13;;;0.63;;
32641;SDS011;19323;56.072;9.698;2022-08-01T12:40:46;2.42;;;0.70;;
32641;SDS011;19323;56.072;9.698;2022-08-01T12:43:19;3.53;;;1.02;;
32641;SDS011;19323;56.072;9.698;2022-08-01T12:45:54;7.05;;;1.10;;
32641;SDS011;19323;56.072;9.698;2022-08-01T12:48:24;3.28;;;1.30;;
32641;SDS011;19323;56.072;9.698;2022-08-01T12:50:52;2.95;;;0.85;;
32641;SDS011;19323;56.072;9.698;2022-08-01T12:53:19;5.80;;;1.13;;
32641;SDS011;19323;56.072;9.698;2022-08-01T12:55:51;2.75;;;1.17;;
32641;SDS011;19323;56.072;9.698;2022-08-01T12:58:30;6.22;;;1.20;;
32641;SDS011;19323;56.072;9.698;2022-08-01T13:01:05;9.48;;;1.60;;
32641;SDS011;19323;56.072;9.698;2022-08-01T13:03:33;2.65;;;1.00;;
32641;SDS011;19323;56.072;9.698;2022-08-01T13:06:00;3.53;;;0.63;;
32641;SDS011;19323;56.072;9.698;2022-08-01T13:08:31;1.73;;;0.60;;
32641;SDS011;19323;56.072;9.698;2022-08-01T13:11:02;2.22;;;0.95;;
32641;SDS011;19323;56.072;9.698;2022-08-01T13:13:44;2.55;;;0.93;;
32641;SDS011;19323;56.072;9.698;2022-08-01T13:16:16;4.65;;;1.17;;
32641;SDS011;19323;56.072;9.698;2022-08-01T13:19:12;3.90;;;0.80;;
32641;SDS011;19323;56.072;9.698;2022-08-01T13:21:40;3.60;;;0.98;;
32641;SDS011;19323;56.072;9.698;2022-08-01T13:24:27;4.20;;;1.40;;
32641;SDS011;19323;56.072;9.698;2022-08-01T13:27:01;3.25;;;0.98;;
32641;SDS011;19323;56.072;9.698;2022-08-01T13:29:34;2.78;;;0.85;;
32641;SDS011;19323;56.072;9.698;2022-08-01T13:32:19;3.15;;;0.80;;
32641;SDS011;19323;56.072;9.698;2022-08-01T13:35:05;3.40;;;1.25;;
32641;SDS011;19323;56.072;9.698;2022-08-01T13:37:35;3.47;;;1.20;;
32641;SDS011;19323;56.072;9.698;2022-08-01T13:40:04;4.07;;;0.88;;
32641;SDS011;19323;56.072;9.698;2022-08-01T13:42:31;2.65;;;0.85;;
32641;SDS011;19323;56.072;9.698;2022-08-01T13:44:58;2.28;;;0.63;;
32641;SDS011;19323;56.072;9.698;2022-08-01T13:47:25;3.58;;;0.98;;
32641;SDS011;19323;56.072;9.698;2022-08-01T13:49:57;4.78;;;1.02;;
32641;SDS011;19323;56.072;9.698;2022-08-01T13:52:27;2.67;;;1.17;;
32641;SDS011;19323;56.072;9.698;2022-08-01T13:54:53;3.60;;;0.57;;
32641;SDS011;19323;56.072;9.698;2022-08-01T13:57:20;4.40;;;0.88;;
32641;SDS011;19323;56.072;9.698;2022-08-01T13:59:47;3.10;;;0.80;;
32641;SDS011;19323;56.072;9.698;2022-08-01T14:02:14;1.95;;;0.55;;
32641;SDS011;19323;56.072;9.698;2022-08-01T14:04:40;3.40;;;0.65;;
32641;SDS011;19323;56.072;9.698;2022-08-01T14:07:07;2.17;;;0.68;;
32641;SDS011;19323;56.072;9.698;2022-08-01T14:09:39;5.93;;;0.50;;
32641;SDS011;19323;56.072;9.698;2022-08-01T14:12:26;2.38;;;0.65;;
32641;SDS011;19323;56.072;9.698;2022-08-01T14:14:53;5.70;;;0.85;;
32641;SDS011;19323;56.072;9.698;2022-08-01T14:17:19;8.80;;;1.02;;
32641;SDS011;19323;56.072;9.698;2022-08-01T14:19:47;2.00;;;0.55;;
32641;SDS011;19323;56.072;9.698;2022-08-01T14:22:13;2.50;;;0.47;;
32641;SDS011;19323;56.072;9.698;2022-08-01T14:24:40;4.15;;;0.80;;
32641;SDS011;19323;56.072;9.698;2022-08-01T14:27:06;2.53;;;0.80;;
32641;SDS011;19323;56.072;9.698;2022-08-01T14:29:33;2.35;;;0.70;;
32641;SDS011;19323;56.072;9.698;2022-08-01T14:32:19;3.08;;;1.08;;
32641;SDS011;19323;56.072;9.698;2022-08-01T14:34:54;2.38;;;0.82;;
32641;SDS011;19323;56.072;9.698;2022-08-01T14:37:20;3.25;;;1.00;;
32641;SDS011;19323;56.072;9.698;2022-08-01T14:39:53;3.65;;;0.80;;
32641;SDS011;19323;56.072;9.698;2022-08-01T14:42:20;2.03;;;0.70;;
32641;SDS011;19323;56.072;9.698;2022-08-01T14:44:47;2.22;;;0.55;;
32641;SDS011;19323;56.072;9.698;2022-08-01T14:47:15;2.15;;;0.77;;
32641;SDS011;19323;56.072;9.698;2022-08-01T14:49:47;1.88;;;0.60;;
32641;SDS011;19323;56.072;9.698;2022-08-01T14:52:13;2.97;;;0.77;;
32641;SDS011;19323;56.072;9.698;2022-08-01T14:54:40;2.75;;;0.80;;
32641;SDS011;19323;56.072;9.698;2022-08-01T14:57:06;3.30;;;0.80;;
32641;SDS011;19323;56.072;9.698;2022-08-01T14:59:33;5.72;;;2.03;;
32641;SDS011;19323;56.072;9.698;2022-08-01T15:01:59;4.55;;;1.70;;
32641;SDS011;19323;56.072;9.698;2022-08-01T15:04:26;3.95;;;1.70;;
32641;SDS011;19323;56.072;9.698;2022-08-01T15:06:53;8.15;;;2.03;;
32641;SDS011;19323;56.072;9.698;2022-08-01T15:09:19;7.78;;;2.50;;
32641;SDS011;19323;56.072;9.698;2022-08-01T15:11:46;8.57;;;2.45;;
32641;SDS011;19323;56.072;9.698;2022-08-01T15:14:13;19.80;;;5.38;;
32641;SDS011;19323;56.072;9.698;2022-08-01T15:16:58;15.50;;;4.30;;
32641;SDS011;19323;56.072;9.698;2022-08-01T15:19:24;24.98;;;7.43;;
32641;SDS011;19323;56.072;9.698;2022-08-01T15:21:51;42.45;;;11.43;;
32641;SDS011;19323;56.072;9.698;2022-08-01T15:24:17;23.35;;;6.75;;
32641;SDS011;19323;56.072;9.698;2022-08-01T15:26:44;29.80;;;7.38;;
32641;SDS011;19323;56.072;9.698;2022-08-01T15:29:10;30.73;;;8.73;;
32641;SDS011;19323;56.072;9.698;2022-08-01T15:31:39;26.08;;;7.65;;
32641;SDS011;19323;56.072;9.698;2022-08-01T15:34:06;28.48;;;8.40;;
32641;SDS011;19323;56.072;9.698;2022-08-01T15:36:32;31.27;;;8.30;;
32641;SDS011;19323;56.072;9.698;2022-08-01T15:38:59;39.65;;;9.80;;
32641;SDS011;19323;56.072;9.698;2022-08-01T15:41:25;37.60;;;9.57;;
32641;SDS011;19323;56.072;9.698;2022-08-01T15:43:51;29.13;;;8.45;;
32641;SDS011;19323;56.072;9.698;2022-08-01T15:46:21;26.20;;;8.93;;
32641;SDS011;19323;56.072;9.698;2022-08-01T15:48:47;24.70;;;8.55;;
32641;SDS011;19323;56.072;9.698;2022-08-01T15:51:14;26.23;;;8.50;;
32641;SDS011;19323;56.072;9.698;2022-08-01T15:53:40;23.73;;;7.90;;
32641;SDS011;19323;56.072;9.698;2022-08-01T15:56:08;24.92;;;7.38;;
32641;SDS011;19323;56.072;9.698;2022-08-01T15:58:35;22.13;;;7.15;;
32641;SDS011;19323;56.072;9.698;2022-08-01T16:01:01;19.27;;;6.35;;